Home > Products > Valid Products > TAF

000
FTUS45 KREV 271100
TAFRNO
TAF
KRNO 271124Z 2712/2812 VRB04KT P6SM SCT250
     FM272100 12006KT P6SM SCT250
     FM280300 VRB03KT P6SM FEW250=



000
FTUS45 KREV 270500
TAFRNO
TAF
KRNO 270520Z 2706/2806 VRB04KT P6SM SCT250
     FM272100 12006KT P6SM FEW250
     FM280300 VRB03KT P6SM SKC=



000
FTUS45 KREV 270500
TAFRNO
TAF
KRNO 270520Z 2706/2806 VRB04KT P6SM SCT250
     FM272100 12006KT P6SM FEW250
     FM280300 VRB03KT P6SM SKC=



000
FTUS45 KREV 270500
TAFRNO
TAF
KRNO 270520Z 2706/2806 VRB04KT P6SM SCT250
     FM272100 12006KT P6SM FEW250
     FM280300 VRB03KT P6SM SKC=



000
FTUS45 KREV 270500
TAFRNO
TAF
KRNO 270520Z 2706/2806 VRB04KT P6SM SCT250
     FM272100 12006KT P6SM FEW250
     FM280300 VRB03KT P6SM SKC=



000
FTUS45 KREV 262300
TAFRNO
TAF
KRNO 262335Z 2700/2724 06006KT P6SM SCT250
     FM270400 VRB04KT P6SM SCT250
     FM272100 12006KT P6SM FEW250=



000
FTUS45 KREV 262300
TAFRNO
TAF
KRNO 262335Z 2700/2724 06006KT P6SM SCT250
     FM270400 VRB04KT P6SM SCT250
     FM272100 12006KT P6SM FEW250=



000
FTUS45 KREV 261700
TAFRNO
TAF
KRNO 261720Z 2618/2718 02011KT P6SM SCT250
     FM270100 06006KT P6SM SCT250
     FM270400 VRB04KT P6SM SCT250=



000
FTUS45 KREV 261700
TAFRNO
TAF
KRNO 261720Z 2618/2718 02011KT P6SM SCT250
     FM270100 06006KT P6SM SCT250
     FM270400 VRB04KT P6SM SCT250=



000
FTUS45 KREV 261700
TAFRNO
TAF
KRNO 261720Z 2618/2718 02011KT P6SM SCT250
     FM270100 06006KT P6SM SCT250
     FM270400 VRB04KT P6SM SCT250=



000
FTUS45 KREV 261700
TAFRNO
TAF
KRNO 261720Z 2618/2718 02011KT P6SM SCT250
     FM270100 06006KT P6SM SCT250
     FM270400 VRB04KT P6SM SCT250=



000
FTUS45 KREV 261100
TAFRNO
TAF
KRNO 261120Z 2612/2712 VRB04KT P6SM FEW150 SCT200
     FM261800 35011KT P6SM SCT250
     FM270100 06006KT P6SM SCT250
     FM270700 VRB04KT P6SM SCT250=



000
FTUS45 KREV 260500
TAFRNO
TAF
KRNO 260525Z 2606/2706 32010KT P6SM SCT080 BKN140
     FM261200 VRB04KT P6SM FEW150 SCT200
     FM261800 35011KT P6SM SCT250
     FM270100 06006KT P6SM SCT250=



000
FTUS45 KREV 260500
TAFRNO
TAF
KRNO 260525Z 2606/2706 32010KT P6SM SCT080 BKN140
     FM261200 VRB04KT P6SM FEW150 SCT200
     FM261800 35011KT P6SM SCT250
     FM270100 06006KT P6SM SCT250=



000
FTUS45 KREV 260500
TAFRNO
TAF
KRNO 260525Z 2606/2706 32010KT P6SM SCT080 BKN140
     FM261200 VRB04KT P6SM FEW150 SCT200
     FM261800 35011KT P6SM SCT250
     FM270100 06006KT P6SM SCT250=



000
FTUS45 KREV 260500
TAFRNO
TAF
KRNO 260525Z 2606/2706 32010KT P6SM SCT080 BKN140
     FM261200 VRB04KT P6SM FEW150 SCT200
     FM261800 35011KT P6SM SCT250
     FM270100 06006KT P6SM SCT250=



000
FTUS45 KREV 260300 AAA
TAFRNO
TAF AMD
KRNO 260350Z 2604/2624 33010KT P6SM SCT080 BKN120
     FM261200 VRB04KT P6SM SCT250
     FM261800 35011KT P6SM SCT250=



000
FTUS45 KREV 260300 AAA
TAFRNO
TAF AMD
KRNO 260350Z 2604/2624 33010KT P6SM SCT080 BKN120
     FM261200 VRB04KT P6SM SCT250
     FM261800 35011KT P6SM SCT250=



000
FTUS45 KREV 260300 AAA
TAFRNO
TAF AMD
KRNO 260350Z 2604/2624 33010KT P6SM SCT080 BKN120
     FM261200 VRB04KT P6SM SCT250
     FM261800 35011KT P6SM SCT250=



000
FTUS45 KREV 252300
TAFRNO
TAF
KRNO 252334Z 2600/2624 32015G23KT P6SM VCSH FEW050 BKN080
     FM260500 32010KT P6SM SCT080 BKN120
     FM261200 VRB04KT P6SM SCT250
     FM261800 35011KT P6SM SCT250=



000
FTUS45 KREV 252300
TAFRNO
TAF
KRNO 252334Z 2600/2624 32015G23KT P6SM VCSH FEW050 BKN080
     FM260500 32010KT P6SM SCT080 BKN120
     FM261200 VRB04KT P6SM SCT250
     FM261800 35011KT P6SM SCT250=



000
FTUS45 KREV 251700 RRA
TAFRNO
TAF
KRNO 251741Z 2518/2618 35013KT P6SM -SHRA SCT030 OVC050
     FM252000 31015G23KT P6SM VCSH SCT050 BKN100
     FM260300 33010KT P6SM SCT080 BKN120
     FM261200 VRB04KT P6SM SCT250=



000
FTUS45 KREV 251700 RRA
TAFRNO
TAF
KRNO 251741Z 2518/2618 35013KT P6SM -SHRA SCT030 OVC050
     FM252000 31015G23KT P6SM VCSH SCT050 BKN100
     FM260300 33010KT P6SM SCT080 BKN120
     FM261200 VRB04KT P6SM SCT250=



000
FTUS45 KREV 251700 RRA
TAFRNO
TAF
KRNO 251741Z 2518/2618 35013KT P6SM -SHRA SCT030 OVC050
     FM252000 31015G23KT P6SM VCSH SCT050 BKN100
     FM260300 33010KT P6SM SCT080 BKN120
     FM261200 VRB04KT P6SM SCT250=



000
FTUS45 KREV 251200 AAA
TAFRNO
TAF AMD
KRNO 251212Z 2512/2612 30008KT P6SM -RA BKN020 OVC035
     FM251500 30013KT P6SM -SHRA SCT030 BKN060
     FM252000 31015G23KT P6SM VCSH SCT050 BKN100
     FM260300 33010KT P6SM SCT080 BKN120=



000
FTUS45 KREV 251200 AAA
TAFRNO
TAF AMD
KRNO 251212Z 2512/2612 30008KT P6SM -RA BKN020 OVC035
     FM251500 30013KT P6SM -SHRA SCT030 BKN060
     FM252000 31015G23KT P6SM VCSH SCT050 BKN100
     FM260300 33010KT P6SM SCT080 BKN120=



000
FTUS45 KREV 251200 AAA
TAFRNO
TAF AMD
KRNO 251212Z 2512/2612 30008KT P6SM -RA BKN020 OVC035
     FM251500 30013KT P6SM -SHRA SCT030 BKN060
     FM252000 31015G23KT P6SM VCSH SCT050 BKN100
     FM260300 33010KT P6SM SCT080 BKN120=



000
FTUS45 KREV 251200 AAA
TAFRNO
TAF AMD
KRNO 251212Z 2512/2612 30008KT P6SM -RA BKN020 OVC035
     FM251500 30013KT P6SM -SHRA SCT030 BKN060
     FM252000 31015G23KT P6SM VCSH SCT050 BKN100
     FM260300 33010KT P6SM SCT080 BKN120=



000
FTUS45 KREV 251100
TAFRNO
TAF
KRNO 251120Z 2512/2612 30008KT P6SM -RA SCT020 BKN035
     FM251500 30013KT P6SM -SHRA SCT030 BKN060
     FM252000 31015G23KT P6SM VCSH SCT050 BKN100
     FM260300 33010KT P6SM SCT080 BKN120=



000
FTUS45 KREV 251100
TAFRNO
TAF
KRNO 251120Z 2512/2612 30008KT P6SM -RA SCT020 BKN035
     FM251500 30013KT P6SM -SHRA SCT030 BKN060
     FM252000 31015G23KT P6SM VCSH SCT050 BKN100
     FM260300 33010KT P6SM SCT080 BKN120=



000
FTUS45 KREV 250500
TAFRNO
TAF
KRNO 250533Z 2506/2606 27012G24KT P6SM VCSH BKN050 OVC100
     FM251000 31010KT P6SM -RA SCT020 BKN035
     FM251500 30013KT P6SM -SHRA SCT030 BKN060
     FM251800 31015G23KT P6SM VCSH SCT050 BKN100=



000
FTUS45 KREV 242300
TAFRNO
TAF
KRNO 242340Z 2500/2524 27012G24KT P6SM SCT070 BKN200
     FM250900 27012G22KT P6SM -RA SCT030 OVC050
     FM251200 31010KT 6SM RA FEW020 BKN035
     FM251700 28012G24KT P6SM VCSH SCT050 BKN100=



000
FTUS45 KREV 241700
TAFRNO
TAF
KRNO 241733Z 2418/2518 28015G25KT P6SM SCT060 SCT100 OVC180
     FM250000 27010G20KT P6SM SCT070 BKN200
     FM250900 27012G22KT P6SM -RA SCT030 OVC050
     FM251200 30010KT 6SM RA FEW020 BKN035=



    US Dept of Commerce
    National Oceanic and Atmospheric Administration
    National Weather Service
    1325 East West Highway
    Silver Spring, MD 20910
    Page Author: NWS Internet Services Team
Disclaimer
Information Quality
Credits
Glossary
Privacy Policy
Freedom of Information Act (FOIA)
About Us
Career Opportunities